createdAt,value
2023-03-28T00:01:11.682Z,38.13
2023-03-28T00:03:40.567Z,40.00
2023-03-28T00:06:12.989Z,41.90
2023-03-28T00:08:41.532Z,33.47
2023-03-28T00:11:12.970Z,36.30
2023-03-28T00:13:41.056Z,32.00
2023-03-28T00:16:13.244Z,32.40
2023-03-28T00:18:43.003Z,37.65
2023-03-28T00:21:27.541Z,39.65
2023-03-28T00:23:57.640Z,34.25
2023-03-28T00:28:57.653Z,31.50
2023-03-28T00:31:30.225Z,31.00
2023-03-28T00:33:58.388Z,31.10
2023-03-28T00:36:29.860Z,32.78
2023-03-28T00:38:58.638Z,29.05
2023-03-28T00:41:32.156Z,30.80
2023-03-28T00:44:04.824Z,40.65
2023-03-28T00:46:40.656Z,31.85
2023-03-28T00:49:16.037Z,50.83
2023-03-28T00:52:02.024Z,41.50
2023-03-28T00:54:40.986Z,31.35
2023-03-28T00:57:11.507Z,32.10
2023-03-28T00:59:41.359Z,31.23
2023-03-28T01:02:09.566Z,31.52
2023-03-28T01:04:50.542Z,28.70
2023-03-28T01:07:19.134Z,30.98
2023-03-28T01:10:00.236Z,27.02
2023-03-28T01:12:28.309Z,33.75
2023-03-28T01:14:56.725Z,32.80
2023-03-28T01:17:28.994Z,31.33
2023-03-28T01:20:07.568Z,27.92
2023-03-28T01:22:59.050Z,27.25
2023-03-28T01:25:52.862Z,36.75
2023-03-28T01:31:43.158Z,29.20
2023-03-28T01:34:17.182Z,27.77
2023-03-28T01:36:54.356Z,29.95
2023-03-28T01:39:29.147Z,34.13
2023-03-28T01:42:11.804Z,31.52
2023-03-28T01:45:23.043Z,32.72
2023-03-28T01:48:24.074Z,30.08
2023-03-28T01:52:15.504Z,33.60
2023-03-28T01:55:10.583Z,35.78
2023-03-28T01:57:49.447Z,31.10
2023-03-28T02:00:35.055Z,31.73
2023-03-28T02:03:25.463Z,30.77
2023-03-28T02:05:57.245Z,29.35
2023-03-28T02:08:30.376Z,29.35
2023-03-28T02:11:00.508Z,29.05
2023-03-28T02:16:14.650Z,31.67
2023-03-28T02:18:49.803Z,31.90
2023-03-28T02:21:43.827Z,29.98
2023-03-28T02:24:15.011Z,31.83
2023-03-28T02:26:43.901Z,25.67
2023-03-28T02:29:17.244Z,28.85
2023-03-28T02:31:46.722Z,29.98
2023-03-28T02:34:15.007Z,28.73
2023-03-28T02:36:54.253Z,34.58
2023-03-28T02:40:02.402Z,32.72
2023-03-28T02:43:24.084Z,32.10
2023-03-28T02:46:21.895Z,32.05
2023-03-28T02:48:59.329Z,25.80
2023-03-28T02:51:37.177Z,31.50
2023-03-28T02:54:23.741Z,26.63
2023-03-28T02:57:18.628Z,29.08
2023-03-28T03:03:39.138Z,32.88
2023-03-28T03:06:08.061Z,29.42
2023-03-28T03:08:36.478Z,27.85
2023-03-28T03:11:07.625Z,28.30
2023-03-28T03:13:36.000Z,28.35
2023-03-28T03:16:05.605Z,30.52
2023-03-28T03:18:36.177Z,35.90
2023-03-28T03:21:04.586Z,29.83
2023-03-28T03:23:32.616Z,29.25
2023-03-28T03:26:01.266Z,34.08
2023-03-28T03:28:30.375Z,32.08
2023-03-28T03:30:59.167Z,34.17
2023-03-28T03:33:27.550Z,34.85
2023-03-28T03:35:55.909Z,31.50
2023-03-28T03:38:24.001Z,29.63
2023-03-28T03:40:52.047Z,31.30
2023-03-28T03:43:20.261Z,28.95
2023-03-28T03:45:48.615Z,33.42
2023-03-28T03:48:16.690Z,31.38
2023-03-28T03:50:44.701Z,27.70
2023-03-28T03:53:12.965Z,33.97
2023-03-28T03:55:41.940Z,28.48
2023-03-28T03:58:12.859Z,37.13
2023-03-28T04:00:43.486Z,29.30
2023-03-28T04:03:24.263Z,32.35
2023-03-28T04:05:55.514Z,32.00
2023-03-28T04:08:26.320Z,34.33
2023-03-28T04:10:54.436Z,28.52
2023-03-28T04:13:22.475Z,33.55
2023-03-28T04:15:50.665Z,30.23
2023-03-28T04:18:20.803Z,37.13
2023-03-28T04:20:57.295Z,31.50
2023-03-28T04:23:26.213Z,30.05
2023-03-28T04:25:57.665Z,28.63
2023-03-28T04:28:27.956Z,32.92
2023-03-28T04:31:00.910Z,31.77
2023-03-28T04:33:30.938Z,29.23
2023-03-28T04:36:02.499Z,30.02
2023-03-28T04:38:37.288Z,29.88
2023-03-28T04:41:08.886Z,32.05
2023-03-28T04:43:39.328Z,30.63
2023-03-28T04:46:07.660Z,31.05
2023-03-28T04:48:35.854Z,28.10
2023-03-28T04:51:04.974Z,30.92
2023-03-28T04:53:33.160Z,30.88
2023-03-28T04:56:02.357Z,30.30
2023-03-28T04:58:30.611Z,29.75
2023-03-28T05:01:03.862Z,33.25
2023-03-28T05:03:37.200Z,26.98
2023-03-28T05:06:12.573Z,28.00
2023-03-28T05:09:27.032Z,32.70
2023-03-28T05:11:58.632Z,34.58
2023-03-28T05:14:32.526Z,31.98
2023-03-28T05:17:17.946Z,29.58
2023-03-28T05:19:46.127Z,26.50
2023-03-28T05:22:14.774Z,29.13
2023-03-28T05:24:50.792Z,29.23
2023-03-28T05:27:18.975Z,46.28
2023-03-28T05:30:22.765Z,34.38
2023-03-28T05:32:50.825Z,27.33
2023-03-28T05:35:19.096Z,30.50
2023-03-28T05:37:50.360Z,33.08
2023-03-28T05:40:18.603Z,28.00
2023-03-28T05:42:47.209Z,30.60
2023-03-28T05:47:57.734Z,31.58
2023-03-28T05:50:29.958Z,30.48
2023-03-28T05:53:01.116Z,29.70
2023-03-28T05:55:41.345Z,35.55
2023-03-28T05:58:09.946Z,28.30
2023-03-28T06:03:08.101Z,31.23
2023-03-28T06:05:37.490Z,27.77
2023-03-28T06:08:06.476Z,25.65
2023-03-28T06:10:34.796Z,33.87
2023-03-28T06:13:05.202Z,30.05
2023-03-28T06:15:34.663Z,27.45
2023-03-28T06:18:03.690Z,29.95
2023-03-28T06:20:32.000Z,30.20
2023-03-28T06:23:00.521Z,33.40
2023-03-28T06:25:30.992Z,28.23
2023-03-28T06:28:02.653Z,26.20
2023-03-28T06:30:32.865Z,30.25
2023-03-28T06:33:03.504Z,27.27
2023-03-28T06:35:34.487Z,28.02
2023-03-28T06:38:03.699Z,27.70
2023-03-28T06:40:32.789Z,28.33
2023-03-28T06:43:01.114Z,30.63
2023-03-28T06:45:29.357Z,28.35
2023-03-28T06:47:59.825Z,26.40
2023-03-28T06:50:28.155Z,27.58
2023-03-28T06:52:57.282Z,32.42
2023-03-28T06:55:26.132Z,34.40
2023-03-28T06:58:01.104Z,37.88
2023-03-28T07:00:29.295Z,28.00
2023-03-28T07:02:58.611Z,24.48
2023-03-28T07:05:27.576Z,25.63
2023-03-28T07:07:56.141Z,25.00
2023-03-28T07:10:24.581Z,26.48
2023-03-28T07:12:56.828Z,34.35
2023-03-28T07:15:27.309Z,35.95
2023-03-28T07:17:58.205Z,31.20
2023-03-28T07:20:30.693Z,27.75
2023-03-28T07:22:59.168Z,35.28
2023-03-28T07:25:27.378Z,24.88
2023-03-28T07:27:55.678Z,23.75
2023-03-28T07:30:24.771Z,34.28
2023-03-28T07:33:01.785Z,24.08
2023-03-28T07:35:45.161Z,29.48
2023-03-28T07:38:14.384Z,32.88
2023-03-28T07:40:44.464Z,29.20
2023-03-28T07:43:13.135Z,23.83
2023-03-28T07:45:45.076Z,27.38
2023-03-28T07:48:15.297Z,25.83
2023-03-28T07:50:45.116Z,33.17
2023-03-28T07:55:59.081Z,24.92
2023-03-28T07:58:29.194Z,24.38
2023-03-28T08:00:57.424Z,26.77
2023-03-28T08:03:25.989Z,30.52
2023-03-28T08:05:54.660Z,28.17
2023-03-28T08:08:22.779Z,27.58
2023-03-28T08:10:53.397Z,26.60
2023-03-28T08:13:24.437Z,29.75
2023-03-28T08:15:58.213Z,27.13
2023-03-28T08:18:26.943Z,23.77
2023-03-28T08:21:03.729Z,24.48
2023-03-28T08:23:32.360Z,26.70
2023-03-28T08:26:10.368Z,23.25
2023-03-28T08:28:39.585Z,29.50
2023-03-28T08:31:17.303Z,26.27
2023-03-28T08:33:48.839Z,26.25
2023-03-28T08:36:16.928Z,28.15
2023-03-28T08:38:47.413Z,24.67
2023-03-28T08:41:48.365Z,26.38
2023-03-28T08:44:34.589Z,26.05
2023-03-28T08:47:09.750Z,24.58
2023-03-28T08:49:56.904Z,26.15
2023-03-28T08:53:08.807Z,26.40
2023-03-28T08:55:43.533Z,27.63
2023-03-28T08:58:27.277Z,24.42
2023-03-28T09:00:55.457Z,27.23
2023-03-28T09:03:25.911Z,23.60
2023-03-28T09:06:05.143Z,23.77
2023-03-28T09:09:11.814Z,27.60
2023-03-28T09:12:12.082Z,26.92
2023-03-28T09:15:07.460Z,26.40
2023-03-28T09:17:46.095Z,23.63
2023-03-28T09:20:59.292Z,24.08
2023-03-28T09:24:05.857Z,26.95
2023-03-28T09:27:02.385Z,23.25
2023-03-28T09:29:33.358Z,28.10
2023-03-28T09:32:05.370Z,25.05
2023-03-28T09:34:46.834Z,26.90
2023-03-28T09:37:34.565Z,27.38
2023-03-28T09:40:15.543Z,25.25
2023-03-28T09:42:56.274Z,26.50
2023-03-28T09:45:42.603Z,24.58
2023-03-28T09:48:33.868Z,27.55
2023-03-28T09:51:03.673Z,26.67
2023-03-28T09:56:34.814Z,22.40
2023-03-28T09:59:05.674Z,23.02
2023-03-28T10:01:48.927Z,24.35
2023-03-28T10:04:40.710Z,24.85
2023-03-28T10:07:11.877Z,28.10
2023-03-28T10:09:50.908Z,27.17
2023-03-28T10:12:40.105Z,25.95
2023-03-28T10:15:28.433Z,27.10
2023-03-28T10:17:58.119Z,26.27
2023-03-28T10:20:26.163Z,21.38
2023-03-28T10:22:56.487Z,28.65
2023-03-28T10:25:46.175Z,19.17
2023-03-28T10:28:37.064Z,24.48
2023-03-28T10:31:07.880Z,22.38
2023-03-28T10:33:41.657Z,24.67
2023-03-28T10:36:13.181Z,22.88
2023-03-28T10:38:44.591Z,23.92
2023-03-28T10:41:33.714Z,27.13
2023-03-28T10:44:27.260Z,24.50
2023-03-28T10:46:57.817Z,24.00
2023-03-28T10:49:28.901Z,29.42
2023-03-28T10:51:57.053Z,28.08
2023-03-28T10:54:31.702Z,29.17
2023-03-28T10:57:12.823Z,33.70
2023-03-28T10:59:51.672Z,29.40
2023-03-28T11:02:27.539Z,31.27
2023-03-28T11:05:12.256Z,26.88
2023-03-28T11:07:58.504Z,27.80
2023-03-28T11:10:39.007Z,29.00
2023-03-28T11:13:41.165Z,35.13
2023-03-28T11:16:30.806Z,32.10
2023-03-28T11:19:19.967Z,28.85
2023-03-28T11:22:06.630Z,30.05
2023-03-28T11:24:44.176Z,30.23
2023-03-28T11:27:24.495Z,28.92
2023-03-28T11:30:11.575Z,27.02
2023-03-28T11:32:51.202Z,33.30
2023-03-28T11:35:34.410Z,27.55
2023-03-28T11:38:12.049Z,31.42
2023-03-28T11:41:04.289Z,25.70
2023-03-28T11:43:45.201Z,30.00
2023-03-28T11:46:17.741Z,28.77
2023-03-28T11:49:21.725Z,29.45
2023-03-28T11:52:13.581Z,29.92
2023-03-28T11:55:09.661Z,27.95
2023-03-28T11:57:59.805Z,30.98
2023-03-28T12:00:33.237Z,31.30
2023-03-28T12:03:23.837Z,32.08
2023-03-28T12:09:06.885Z,34.30
2023-03-28T12:11:57.898Z,39.97
2023-03-28T12:14:44.496Z,34.08
2023-03-28T12:17:26.682Z,32.97
2023-03-28T12:19:55.059Z,35.35
2023-03-28T12:22:50.527Z,35.90
2023-03-28T12:25:41.426Z,34.78
2023-03-28T12:28:24.398Z,34.10
2023-03-28T12:31:16.752Z,38.72
2023-03-28T12:34:17.055Z,37.35
2023-03-28T12:37:12.518Z,30.50
2023-03-28T12:39:54.780Z,37.95
2023-03-28T12:42:26.646Z,36.90
2023-03-28T12:45:01.472Z,30.95
2023-03-28T12:47:37.068Z,33.20
2023-03-28T12:50:16.942Z,32.10
2023-03-28T12:52:46.979Z,32.33
2023-03-28T12:55:35.057Z,31.48
2023-03-28T12:58:34.428Z,30.92
2023-03-28T13:01:22.622Z,35.53
2023-03-28T13:04:22.920Z,37.40
2023-03-28T13:07:02.109Z,36.38
2023-03-28T13:09:52.160Z,33.92
2023-03-28T13:12:32.475Z,32.63
2023-03-28T13:15:15.891Z,37.05
2023-03-28T13:17:48.512Z,35.70
2023-03-28T13:20:16.712Z,31.13
2023-03-28T13:22:53.997Z,33.20
2023-03-28T13:25:35.431Z,33.08
2023-03-28T13:28:12.419Z,35.58
2023-03-28T13:30:47.710Z,38.80
2023-03-28T13:33:30.853Z,34.03
2023-03-28T13:35:58.921Z,36.75
2023-03-28T13:38:30.741Z,34.17
2023-03-28T13:41:07.305Z,36.50
2023-03-28T13:43:42.679Z,37.50
2023-03-28T13:46:23.013Z,37.75
2023-03-28T13:48:52.462Z,35.75
2023-03-28T13:51:26.533Z,39.78
2023-03-28T13:53:54.572Z,38.65
2023-03-28T13:56:31.846Z,36.22
2023-03-28T13:59:01.509Z,33.25
2023-03-28T14:01:46.343Z,36.42
2023-03-28T14:04:23.377Z,38.15
2023-03-28T14:06:53.836Z,37.33
2023-03-28T14:09:29.388Z,43.70
2023-03-28T14:12:14.546Z,34.95
2023-03-28T14:14:47.392Z,36.97
2023-03-28T14:17:22.776Z,35.40
2023-03-28T14:20:06.585Z,33.10
2023-03-28T14:22:52.715Z,31.75
2023-03-28T14:25:26.250Z,32.10
2023-03-28T14:27:56.547Z,35.50
2023-03-28T14:30:37.983Z,29.10
2023-03-28T14:33:20.596Z,29.85
2023-03-28T14:36:04.066Z,31.27
2023-03-28T14:38:38.543Z,31.13
2023-03-28T14:41:25.933Z,29.58
2023-03-28T14:43:57.123Z,32.47
2023-03-28T14:46:29.460Z,33.28
2023-03-28T14:49:00.155Z,33.70
2023-03-28T14:51:28.551Z,34.35
2023-03-28T14:53:57.193Z,33.25
2023-03-28T14:56:28.018Z,34.88
2023-03-28T14:59:00.686Z,38.85
2023-03-28T15:01:31.555Z,30.77
2023-03-28T15:04:06.102Z,25.95
2023-03-28T15:06:35.615Z,31.02
2023-03-28T15:09:31.673Z,29.00
2023-03-28T15:12:04.527Z,27.63
2023-03-28T15:14:40.416Z,29.55
2023-03-28T15:17:17.326Z,29.48
2023-03-28T15:19:47.132Z,30.40
2023-03-28T15:24:46.647Z,88.30
2023-03-28T15:27:32.030Z,62.45
2023-03-28T15:30:07.029Z,44.60
2023-03-28T15:32:35.082Z,31.30
2023-03-28T15:35:20.634Z,28.80
2023-03-28T15:37:49.095Z,23.30
2023-03-28T15:40:20.046Z,21.35
2023-03-28T15:42:53.958Z,21.15
2023-03-28T15:45:22.674Z,25.08
2023-03-28T15:47:56.475Z,29.55
2023-03-28T15:50:38.643Z,26.05
2023-03-28T15:53:15.431Z,24.00
2023-03-28T15:55:45.106Z,19.77
2023-03-28T15:58:19.472Z,21.25
2023-03-28T16:00:53.130Z,20.60
2023-03-28T16:03:33.031Z,21.95
2023-03-28T16:06:30.666Z,20.05
2023-03-28T16:09:14.278Z,22.48
2023-03-28T16:11:43.642Z,20.35
2023-03-28T16:14:16.529Z,20.15
2023-03-28T16:16:45.844Z,16.83
2023-03-28T16:19:22.799Z,16.20
2023-03-28T16:21:52.061Z,13.13
2023-03-28T16:24:21.731Z,11.77
2023-03-28T16:26:50.807Z,13.43
2023-03-28T16:29:20.464Z,14.13
2023-03-28T16:31:49.367Z,13.77
2023-03-28T16:34:18.497Z,14.27
2023-03-28T16:36:47.949Z,15.40
2023-03-28T16:39:16.801Z,12.73
2023-03-28T16:41:45.790Z,15.65
2023-03-28T16:44:13.728Z,15.13
2023-03-28T16:46:41.858Z,11.45
2023-03-28T16:49:10.237Z,12.30
2023-03-28T16:51:38.232Z,12.80
2023-03-28T16:54:06.689Z,8.80
2023-03-28T16:56:35.428Z,9.82
2023-03-28T16:59:08.048Z,11.88
2023-03-28T17:01:37.184Z,9.63
2023-03-28T17:04:05.484Z,9.37
2023-03-28T17:06:34.195Z,7.72
2023-03-28T17:09:04.780Z,11.57
2023-03-28T17:11:35.194Z,10.65
2023-03-28T17:14:04.389Z,10.00
2023-03-28T17:16:33.548Z,8.60
2023-03-28T17:19:02.817Z,7.47
2023-03-28T17:21:32.132Z,9.00
2023-03-28T17:24:01.345Z,8.20
2023-03-28T17:26:30.524Z,8.63
2023-03-28T17:28:59.028Z,11.23
2023-03-28T17:31:28.882Z,9.35
2023-03-28T17:33:59.565Z,10.88
2023-03-28T17:36:30.008Z,8.40
2023-03-28T17:39:00.425Z,13.95
2023-03-28T17:41:29.682Z,10.00
2023-03-28T17:44:00.049Z,11.00
2023-03-28T17:46:29.009Z,6.50
2023-03-28T17:48:58.275Z,7.70
2023-03-28T17:51:27.610Z,9.93
2023-03-28T17:53:56.659Z,8.13
2023-03-28T17:56:24.753Z,8.98
2023-03-28T17:58:53.496Z,8.90
2023-03-28T18:01:22.815Z,10.68
2023-03-28T18:03:51.798Z,15.73
2023-03-28T18:06:20.281Z,14.30
2023-03-28T18:08:51.162Z,15.15
2023-03-28T18:11:20.791Z,12.20
2023-03-28T18:13:49.171Z,12.00
2023-03-28T18:16:18.571Z,11.25
2023-03-28T18:18:47.769Z,10.57
2023-03-28T18:21:16.810Z,10.30
2023-03-28T18:23:45.591Z,10.55
2023-03-28T18:26:13.965Z,13.13
2023-03-28T18:28:41.993Z,13.52
2023-03-28T18:31:17.582Z,14.40
2023-03-28T18:33:46.294Z,13.13
2023-03-28T18:36:15.828Z,12.52
2023-03-28T18:38:46.789Z,12.82
2023-03-28T18:41:16.348Z,13.20
2023-03-28T18:43:46.159Z,13.77
2023-03-28T18:46:16.378Z,14.55
2023-03-28T18:48:46.752Z,13.38
2023-03-28T18:51:16.278Z,14.95
2023-03-28T18:53:45.217Z,13.07
2023-03-28T18:56:14.560Z,13.13
2023-03-28T18:58:44.146Z,13.23
2023-03-28T19:01:15.815Z,12.48
2023-03-28T19:03:45.273Z,14.13
2023-03-28T19:06:15.915Z,12.82
2023-03-28T19:08:47.625Z,13.40
2023-03-28T19:11:19.938Z,17.35
2023-03-28T19:13:51.070Z,10.95
2023-03-28T19:16:22.244Z,11.18
2023-03-28T19:18:50.559Z,13.82
2023-03-28T19:21:19.385Z,14.85
2023-03-28T19:23:52.031Z,11.13
2023-03-28T19:26:20.176Z,13.43
2023-03-28T19:28:49.091Z,14.05
2023-03-28T19:31:18.094Z,12.20
2023-03-28T19:33:47.708Z,13.20
2023-03-28T19:36:18.821Z,15.07
2023-03-28T19:38:50.089Z,15.60
2023-03-28T19:41:20.820Z,20.48
2023-03-28T19:43:51.322Z,16.00
2023-03-28T19:46:30.755Z,19.58
2023-03-28T19:49:06.655Z,15.57
2023-03-28T19:51:35.895Z,16.10
2023-03-28T19:54:04.624Z,13.63
2023-03-28T19:56:33.671Z,18.90
2023-03-28T19:59:02.591Z,18.88
2023-03-28T20:01:31.961Z,15.88
2023-03-28T20:04:01.035Z,20.02
2023-03-28T20:06:32.015Z,14.07
2023-03-28T20:09:01.387Z,12.38
2023-03-28T20:11:30.503Z,20.77
2023-03-28T20:13:59.705Z,15.85
2023-03-28T20:16:28.606Z,15.13
2023-03-28T20:18:58.528Z,12.77
2023-03-28T20:21:29.963Z,13.77
2023-03-28T20:23:59.197Z,16.65
2023-03-28T20:26:28.163Z,18.47
2023-03-28T20:28:59.669Z,14.55
2023-03-28T20:34:12.021Z,16.52
2023-03-28T20:36:42.538Z,16.35
2023-03-28T20:39:11.558Z,17.35
2023-03-28T20:41:40.888Z,18.65
2023-03-28T20:44:09.999Z,15.30
2023-03-28T20:46:38.971Z,16.40
2023-03-28T20:49:08.161Z,16.95
2023-03-28T20:51:39.501Z,22.67
2023-03-28T20:54:08.888Z,17.50
2023-03-28T20:56:38.163Z,19.40
2023-03-28T20:59:08.093Z,17.27
2023-03-28T21:01:39.753Z,15.23
2023-03-28T21:04:08.953Z,22.05
2023-03-28T21:06:39.736Z,15.40
2023-03-28T21:09:15.475Z,16.30
2023-03-28T21:11:44.780Z,14.13
2023-03-28T21:14:16.786Z,14.63
2023-03-28T21:16:47.735Z,13.65
2023-03-28T21:19:16.815Z,12.15
2023-03-28T21:21:45.818Z,14.13
2023-03-28T21:24:14.782Z,13.35
2023-03-28T21:26:44.142Z,14.88
2023-03-28T21:29:13.557Z,16.95
2023-03-28T21:31:41.903Z,12.23
2023-03-28T21:34:10.475Z,14.15
2023-03-28T21:36:39.239Z,11.45
2023-03-28T21:39:08.193Z,12.93
2023-03-28T21:41:38.381Z,12.80
2023-03-28T21:44:07.707Z,13.82
2023-03-28T21:46:36.970Z,13.18
2023-03-28T21:49:06.016Z,15.55
2023-03-28T21:51:35.420Z,14.18
2023-03-28T21:54:04.773Z,12.13
2023-03-28T21:56:33.707Z,12.98
2023-03-28T21:59:02.564Z,10.90
2023-03-28T22:01:31.601Z,17.58
2023-03-28T22:04:01.182Z,13.65
2023-03-28T22:06:30.251Z,16.80
2023-03-28T22:08:59.174Z,13.02
2023-03-28T22:11:28.913Z,11.88
2023-03-28T22:14:02.489Z,10.90
2023-03-28T22:16:33.225Z,13.48
2023-03-28T22:19:03.104Z,11.40
2023-03-28T22:21:32.310Z,16.67
2023-03-28T22:24:07.299Z,18.57
2023-03-28T22:26:36.467Z,12.35
2023-03-28T22:29:06.327Z,13.33
2023-03-28T22:31:35.608Z,11.90
2023-03-28T22:34:04.701Z,14.77
2023-03-28T22:36:33.731Z,13.13
2023-03-28T22:39:02.937Z,12.02
2023-03-28T22:41:34.233Z,17.30
2023-03-28T22:44:03.514Z,16.17
2023-03-28T22:46:32.676Z,14.33
2023-03-28T22:49:01.874Z,13.23
2023-03-28T22:51:31.246Z,13.97
2023-03-28T22:54:02.424Z,16.17
2023-03-28T22:56:31.569Z,13.68
2023-03-28T22:59:02.389Z,16.92
2023-03-28T23:01:34.221Z,15.75
2023-03-28T23:04:05.186Z,17.92
2023-03-28T23:06:39.028Z,13.75
2023-03-28T23:09:08.952Z,19.02
2023-03-28T23:11:38.533Z,16.92
2023-03-28T23:14:09.534Z,18.73
2023-03-28T23:16:40.600Z,21.20
2023-03-28T23:19:10.322Z,19.70
2023-03-28T23:21:39.487Z,20.70
2023-03-28T23:24:08.990Z,17.53
2023-03-28T23:26:38.207Z,22.05
2023-03-28T23:29:07.687Z,21.27
2023-03-28T23:31:36.841Z,16.42
2023-03-28T23:34:06.067Z,18.87
2023-03-28T23:36:36.879Z,18.13
2023-03-28T23:39:07.634Z,14.93
2023-03-28T23:41:38.444Z,15.80
2023-03-28T23:44:09.398Z,19.33
2023-03-28T23:46:38.905Z,18.52
2023-03-28T23:49:09.770Z,18.42
2023-03-28T23:51:39.032Z,15.55
2023-03-28T23:54:09.886Z,22.87
2023-03-28T23:56:41.537Z,17.85
2023-03-28T23:59:10.958Z,21.95
